Time;durP1;ratioP1;P1;durP2;ratioP2;P2;SDS_P1;SDS_P2;PMS_P1;PMS_P2;Temp;Humidity;BMP_temperature;BMP_pressure;BME280_temperature;BME280_humidity;BME280_pressure;Samples;Min_cycle;Max_cycle;Signal;HPM_P1;HPM_P2
2022/12/25 00:01:07;;;;;;;33.28;10.00;;;7.60;99.90;;;;;;5092728;28;20032;-79
2022/12/25 00:03:33;;;;;;;27.70;10.60;;;7.50;99.90;;;;;;5091880;28;20085;-78
2022/12/25 00:05:59;;;;;;;20.35;8.55;;;7.60;99.90;;;;;;5092882;28;20021;-77
2022/12/25 00:08:24;;;;;;;24.83;8.93;;;7.50;99.90;;;;;;5092131;28;20461;-78
2022/12/25 00:11:05;;;;;;;20.38;9.55;;;7.50;99.90;;;;;;5093107;28;20016;-77
2022/12/25 00:13:31;;;;;;;26.08;9.75;;;7.40;99.90;;;;;;5091578;28;20496;-78
2022/12/25 00:15:57;;;;;;;29.90;10.32;;;7.40;99.90;;;;;;5092710;28;20111;-79
2022/12/25 00:18:23;;;;;;;33.45;9.32;;;7.50;99.90;;;;;;5091461;28;20311;-78
2022/12/25 00:21:00;;;;;;;33.63;9.50;;;7.40;99.90;;;;;;5092804;28;20023;-78
2022/12/25 00:23:25;;;;;;;28.08;9.15;;;7.50;99.90;;;;;;5093038;28;20078;-79
2022/12/25 00:25:52;;;;;;;27.55;8.60;;;7.50;99.90;;;;;;5093186;28;20099;-78
2022/12/25 00:28:18;;;;;;;21.20;9.68;;;7.50;99.90;;;;;;5091544;28;20135;-79
2022/12/25 00:30:44;;;;;;;26.58;10.25;;;7.40;99.90;;;;;;5092629;28;20039;-78
2022/12/25 00:33:10;;;;;;;29.90;9.77;;;7.50;99.90;;;;;;5092541;28;20036;-78
2022/12/25 00:35:35;;;;;;;30.92;9.02;;;7.40;99.90;;;;;;5092857;28;20027;-79
2022/12/25 00:38:01;;;;;;;27.05;7.97;;;7.40;99.90;;;;;;5091630;28;20118;-78
2022/12/25 00:40:27;;;;;;;33.47;8.77;;;7.50;99.90;;;;;;5091703;28;20118;-79
2022/12/25 00:42:52;;;;;;;29.48;9.27;;;7.50;99.90;;;;;;5092267;28;20036;-78
2022/12/25 00:45:18;;;;;;;35.60;9.05;;;7.50;99.90;;;;;;5092682;28;20365;-79
2022/12/25 00:47:44;;;;;;;29.40;8.93;;;7.50;99.90;;;;;;5091100;28;20465;-77
2022/12/25 00:50:10;;;;;;;28.88;9.15;;;7.30;99.90;;;;;;5091684;28;20023;-78
2022/12/25 00:52:35;;;;;;;35.33;9.30;;;7.60;99.90;;;;;;5091824;28;20028;-78
2022/12/25 00:55:02;;;;;;;31.55;8.55;;;7.70;99.90;;;;;;5091062;28;20437;-78
2022/12/25 00:57:27;;;;;;;21.08;8.10;;;7.60;99.90;;;;;;5092110;28;20111;-77
2022/12/25 00:59:53;;;;;;;38.45;9.05;;;7.70;99.90;;;;;;5090770;28;20517;-78
2022/12/25 01:02:22;;;;;;;27.45;8.30;;;7.60;99.90;;;;;;5092296;28;20020;-79
2022/12/25 01:04:49;;;;;;;29.80;7.80;;;7.60;99.90;;;;;;5091753;28;20040;-78
2022/12/25 01:07:18;;;;;;;24.20;8.93;;;7.60;99.90;;;;;;5091856;28;20470;-79
2022/12/25 01:12:31;;;;;;;27.55;8.23;;;7.50;99.90;;;;;;5091258;28;20101;-78
2022/12/25 01:14:57;;;;;;;42.63;10.13;;;7.50;99.90;;;;;;5090194;28;20116;-78
2022/12/25 01:17:23;;;;;;;24.08;9.10;;;7.50;99.90;;;;;;5091226;28;20134;-79
2022/12/25 01:19:49;;;;;;;38.08;9.32;;;7.40;99.90;;;;;;5090488;28;20032;-78
2022/12/25 01:22:15;;;;;;;36.40;9.43;;;7.40;99.90;;;;;;5090573;28;20035;-78
2022/12/25 01:24:42;;;;;;;30.08;7.72;;;7.40;99.90;;;;;;5091507;28;20028;-78
2022/12/25 01:27:08;;;;;;;30.40;9.07;;;7.40;99.90;;;;;;5091441;28;20039;-78
2022/12/25 01:29:36;;;;;;;29.20;8.35;;;7.40;99.90;;;;;;5092199;28;20020;-78
2022/12/25 01:32:02;;;;;;;25.17;7.70;;;7.40;99.90;;;;;;5091356;28;20028;-78
2022/12/25 01:34:28;;;;;;;36.03;7.55;;;7.40;99.90;;;;;;5089927;28;20058;-79
2022/12/25 01:36:54;;;;;;;26.02;6.95;;;7.40;99.90;;;;;;5091335;28;20042;-78
2022/12/25 01:39:19;;;;;;;27.88;7.13;;;7.40;99.90;;;;;;5091287;28;20454;-77
2022/12/25 01:41:46;;;;;;;21.15;6.45;;;7.40;99.90;;;;;;5090117;28;20020;-77
2022/12/25 01:44:18;;;;;;;36.13;7.63;;;7.50;99.90;;;;;;5090520;28;20484;-79
2022/12/25 01:46:44;;;;;;;24.10;6.75;;;7.50;99.90;;;;;;5091076;28;20032;-78
2022/12/25 01:49:15;;;;;;;24.83;7.43;;;7.50;99.90;;;;;;5091168;28;20188;-78
2022/12/25 01:51:46;;;;;;;31.55;7.20;;;7.50;99.90;;;;;;5090673;28;20060;-79
2022/12/25 01:54:16;;;;;;;26.30;7.40;;;7.50;99.90;;;;;;5090786;28;20032;-78
2022/12/25 01:56:44;;;;;;;27.73;7.10;;;7.50;99.90;;;;;;5089889;28;20453;-79
2022/12/25 01:59:12;;;;;;;24.77;6.75;;;7.50;99.90;;;;;;5090237;28;20020;-78
2022/12/25 02:01:38;;;;;;;32.90;6.93;;;7.60;99.90;;;;;;5090997;28;20088;-78
2022/12/25 02:04:37;;;;;;;33.38;6.70;;;7.50;99.90;;;;;;5089467;28;20028;-78
2022/12/25 02:07:08;;;;;;;29.95;7.30;;;7.50;99.90;;;;;;5090816;28;20056;-78
2022/12/25 02:09:34;;;;;;;28.10;6.53;;;7.50;99.90;;;;;;5089525;28;20043;-77
2022/12/25 02:12:00;;;;;;;25.05;6.38;;;7.50;99.90;;;;;;5090599;28;20040;-78
2022/12/25 02:14:28;;;;;;;30.05;6.35;;;7.50;99.90;;;;;;5090958;28;20024;-78
2022/12/25 02:17:27;;;;;;;25.45;6.20;;;7.50;99.90;;;;;;5089446;28;20537;-78
2022/12/25 02:20:12;;;;;;;22.98;6.15;;;7.50;99.90;;;;;;5058904;28;20032;-76
2022/12/25 02:22:51;;;;;;;32.85;6.78;;;7.50;99.90;;;;;;5089453;28;20031;-79
2022/12/25 02:25:19;;;;;;;36.38;6.65;;;7.40;99.90;;;;;;5090180;28;20024;-78
2022/12/25 02:28:19;;;;;;;16.90;5.53;;;7.40;99.90;;;;;;5090638;28;20036;-78
2022/12/25 02:30:52;;;;;;;23.98;6.75;;;7.30;99.90;;;;;;5078389;28;20024;-77
2022/12/25 02:36:23;;;;;;;19.60;5.25;;;7.40;99.90;;;;;;5103272;28;20047;-77
2022/12/25 02:41:42;;;;;;;33.28;6.50;;;7.50;99.90;;;;;;5112084;28;20425;-78
2022/12/25 03:07:14;;;;;;;27.77;5.97;;;7.70;99.90;;;;;;5068243;28;20116;-77
2022/12/25 03:12:45;;;;;;;24.88;5.78;;;7.80;99.90;;;;;;5110472;28;20088;-77
2022/12/25 03:18:00;;;;;;;21.55;5.93;;;7.70;99.90;;;;;;5110637;28;19915;-77
2022/12/25 03:28:42;;;;;;;34.60;11.48;;;7.60;99.90;;;;;;5110530;28;20357;-77
2022/12/25 03:31:26;;;;;;;132.18;61.05;;;7.60;99.90;;;;;;5110234;28;20028;-77
2022/12/25 03:36:44;;;;;;;29.83;6.85;;;7.60;99.90;;;;;;5110774;28;20041;-77
2022/12/25 03:40:31;;;;;;;29.35;5.50;;;7.60;99.90;;;;;;5112772;28;20034;-77
2022/12/25 03:46:12;;;;;;;16.92;5.45;;;7.50;99.90;;;;;;5113903;28;20114;-79
2022/12/25 04:37:52;;;;;;;17.35;5.15;;;7.60;99.90;;;;;;5112980;28;20038;-78
2022/12/25 04:40:18;;;;;;;18.90;4.50;;;7.70;99.90;;;;;;5111600;28;20023;-78
2022/12/25 04:42:44;;;;;;;19.45;5.32;;;7.80;99.90;;;;;;5111356;28;20040;-77
2022/12/25 04:45:10;;;;;;;19.45;4.65;;;7.70;99.90;;;;;;5112680;28;20034;-78
2022/12/25 04:47:36;;;;;;;22.15;4.70;;;7.70;99.90;;;;;;5111691;28;20031;-78
2022/12/25 04:50:02;;;;;;;18.35;5.00;;;7.70;99.90;;;;;;5112407;28;20035;-77
2022/12/25 04:52:27;;;;;;;20.48;5.30;;;7.70;99.90;;;;;;5112330;28;20107;-79
2022/12/25 04:54:53;;;;;;;25.42;5.60;;;7.70;99.90;;;;;;5112438;27;20055;-78
2022/12/25 04:57:18;;;;;;;20.92;5.22;;;7.70;99.90;;;;;;5112346;28;20027;-77
2022/12/25 04:59:44;;;;;;;22.63;5.15;;;7.70;99.90;;;;;;5112065;28;20023;-78
2022/12/25 05:02:11;;;;;;;19.42;5.18;;;7.70;99.90;;;;;;5112907;28;20325;-79
2022/12/25 05:04:36;;;;;;;16.33;5.32;;;7.70;99.90;;;;;;5112454;27;20038;-77
2022/12/25 05:07:02;;;;;;;21.55;5.22;;;7.80;99.90;;;;;;5112033;28;20027;-78
2022/12/25 05:09:28;;;;;;;24.67;5.53;;;7.80;99.90;;;;;;5112052;28;20032;-78
2022/12/25 05:11:53;;;;;;;14.90;4.80;;;7.80;99.90;;;;;;5110828;27;20044;-79
2022/12/25 05:14:19;;;;;;;17.35;5.55;;;7.90;99.90;;;;;;5112815;28;20031;-78
2022/12/25 05:16:45;;;;;;;22.65;5.93;;;7.90;99.90;;;;;;5110898;28;20027;-77
2022/12/25 05:19:10;;;;;;;20.10;5.20;;;7.90;99.90;;;;;;5111648;28;20123;-78
2022/12/25 05:21:36;;;;;;;18.02;4.72;;;8.00;99.90;;;;;;5111022;28;20034;-78
2022/12/25 05:24:02;;;;;;;22.25;6.00;;;8.00;99.90;;;;;;5112148;27;20031;-78
2022/12/25 05:26:27;;;;;;;23.73;5.57;;;8.00;99.90;;;;;;5112054;28;20067;-77
2022/12/25 05:28:54;;;;;;;18.35;5.15;;;8.00;99.90;;;;;;5110939;28;20040;-79
2022/12/25 05:31:20;;;;;;;15.13;5.20;;;8.00;99.90;;;;;;5111698;28;20031;-77
2022/12/25 05:33:49;;;;;;;23.70;5.85;;;8.10;99.90;;;;;;5111249;28;20402;-78
2022/12/25 05:36:15;;;;;;;16.20;4.43;;;8.10;99.90;;;;;;5110391;28;20467;-77
2022/12/25 05:38:40;;;;;;;23.00;5.68;;;8.20;99.90;;;;;;5112313;28;20023;-76
2022/12/25 05:41:06;;;;;;;18.10;5.00;;;8.10;99.90;;;;;;5110620;28;20028;-77
2022/12/25 05:43:32;;;;;;;20.00;5.00;;;8.20;99.90;;;;;;5111531;28;20246;-78
2022/12/25 05:46:02;;;;;;;17.17;4.95;;;8.20;99.90;;;;;;5111142;28;20020;-78
2022/12/25 05:48:27;;;;;;;23.83;5.35;;;8.20;99.90;;;;;;5111349;28;20177;-77
2022/12/25 05:50:53;;;;;;;12.48;4.95;;;8.20;99.90;;;;;;5111658;28;20107;-78
2022/12/25 05:53:19;;;;;;;20.05;4.68;;;8.20;99.90;;;;;;5110764;28;20031;-78
2022/12/25 05:55:44;;;;;;;20.27;4.63;;;8.30;99.90;;;;;;5111769;28;20045;-77
2022/12/25 05:58:12;;;;;;;20.50;4.63;;;8.30;99.90;;;;;;5110401;28;20056;-80
2022/12/25 06:00:38;;;;;;;18.10;5.35;;;8.30;99.90;;;;;;5110998;28;20399;-78
2022/12/25 06:03:03;;;;;;;22.30;5.53;;;8.30;99.90;;;;;;5110337;28;20458;-77
2022/12/25 06:05:30;;;;;;;19.98;4.78;;;8.40;99.90;;;;;;5111765;28;20028;-79
2022/12/25 06:07:55;;;;;;;14.50;4.22;;;8.40;99.90;;;;;;5109882;28;20020;-77
2022/12/25 06:10:21;;;;;;;19.75;4.85;;;8.40;99.90;;;;;;5111129;28;20038;-78
2022/12/25 06:12:47;;;;;;;18.33;5.60;;;8.50;99.90;;;;;;5110695;28;20338;-77
2022/12/25 06:15:13;;;;;;;17.73;5.03;;;8.40;99.90;;;;;;5111576;28;20032;-77
2022/12/25 06:17:39;;;;;;;24.67;9.10;;;8.40;99.90;;;;;;5111621;28;20069;-77
2022/12/25 06:20:06;;;;;;;28.00;9.88;;;8.50;99.90;;;;;;5111075;28;20024;-76
2022/12/25 06:22:32;;;;;;;18.65;6.55;;;8.40;99.90;;;;;;5109849;28;20077;-80
2022/12/25 06:24:58;;;;;;;19.45;6.43;;;8.50;99.90;;;;;;5110037;28;20028;-77
2022/12/25 06:27:24;;;;;;;22.75;8.10;;;8.50;99.90;;;;;;5109926;28;20020;-77
2022/12/25 06:29:50;;;;;;;15.20;5.38;;;8.50;99.90;;;;;;5109935;28;20365;-76
2022/12/25 06:32:16;;;;;;;13.57;4.68;;;8.50;99.90;;;;;;5111647;28;20445;-77
2022/12/25 06:34:42;;;;;;;19.40;4.68;;;8.50;99.90;;;;;;5110838;28;20031;-77
2022/12/25 06:37:07;;;;;;;16.95;5.07;;;8.80;99.90;;;;;;5110965;28;20036;-77
2022/12/25 06:39:33;;;;;;;15.85;4.80;;;8.50;99.90;;;;;;5111206;28;20040;-77
2022/12/25 06:41:59;;;;;;;12.50;4.25;;;8.40;99.90;;;;;;5110997;28;20023;-77
2022/12/25 06:44:25;;;;;;;22.17;4.75;;;8.50;99.90;;;;;;5111380;28;20046;-78
2022/12/25 06:46:52;;;;;;;18.35;4.75;;;8.40;99.90;;;;;;5110859;28;20024;-78
2022/12/25 06:49:18;;;;;;;15.43;4.28;;;8.50;99.90;;;;;;5110066;28;20043;-77
2022/12/25 06:51:44;;;;;;;14.13;4.43;;;8.50;99.90;;;;;;5109683;28;20035;-78
2022/12/25 06:54:09;;;;;;;21.27;4.68;;;8.50;99.90;;;;;;5110856;28;20046;-77
2022/12/25 06:56:36;;;;;;;17.25;4.68;;;8.50;99.90;;;;;;5111191;28;20089;-77
2022/12/25 06:59:05;;;;;;;20.17;4.57;;;8.50;99.90;;;;;;5109646;28;20042;-76
2022/12/25 07:01:41;;;;;;;16.15;4.78;;;8.50;99.90;;;;;;5110749;28;20042;-77
2022/12/25 07:04:18;;;;;;;16.15;4.50;;;8.50;99.90;;;;;;5110721;28;20058;-76
2022/12/25 07:06:43;;;;;;;20.90;5.20;;;8.50;99.90;;;;;;5110953;28;20405;-77
2022/12/25 07:09:09;;;;;;;15.68;3.85;;;8.50;99.90;;;;;;5110726;28;20042;-77
2022/12/25 07:11:35;;;;;;;21.60;8.18;;;8.50;99.90;;;;;;5110566;28;20028;-77
2022/12/25 07:14:01;;;;;;;21.15;6.85;;;8.50;99.90;;;;;;5114842;28;20047;-78
2022/12/25 07:16:26;;;;;;;20.10;5.13;;;8.50;99.90;;;;;;5114450;28;20034;-77
2022/12/25 07:18:52;;;;;;;18.05;4.80;;;8.50;99.90;;;;;;5114618;27;20088;-77
2022/12/25 07:21:19;;;;;;;15.05;5.10;;;8.50;99.90;;;;;;5114244;28;20034;-78
2022/12/25 07:23:46;;;;;;;18.23;4.20;;;8.50;99.90;;;;;;5113297;27;20031;-77
2022/12/25 07:26:13;;;;;;;15.10;4.90;;;8.70;99.90;;;;;;5114886;28;20024;-77
2022/12/25 07:28:39;;;;;;;20.67;4.63;;;8.50;99.90;;;;;;5114181;28;20151;-78
2022/12/25 07:31:07;;;;;;;20.77;5.07;;;8.60;99.90;;;;;;5114180;28;20124;-78
2022/12/25 07:33:32;;;;;;;17.23;4.93;;;8.60;99.90;;;;;;5113959;27;20028;-76
2022/12/25 07:35:59;;;;;;;18.75;4.60;;;8.60;99.90;;;;;;5113929;28;20049;-76
2022/12/25 07:38:24;;;;;;;13.63;4.22;;;8.70;99.90;;;;;;5114554;28;20019;-78
2022/12/25 07:40:50;;;;;;;14.63;4.38;;;8.50;99.90;;;;;;5114313;28;20043;-76
2022/12/25 07:43:16;;;;;;;11.73;4.13;;;8.50;99.90;;;;;;5113880;28;20111;-77
2022/12/25 07:45:42;;;;;;;11.57;4.85;;;8.40;99.90;;;;;;5112646;28;20119;-76
2022/12/25 07:48:08;;;;;;;10.52;4.28;;;8.40;99.90;;;;;;5113634;28;20056;-78
2022/12/25 07:50:33;;;;;;;10.52;4.28;;;8.40;99.90;;;;;;5114221;28;20115;-78
2022/12/25 07:52:59;;;;;;;16.60;4.32;;;8.50;99.90;;;;;;5113410;28;20031;-78
2022/12/25 07:55:25;;;;;;;19.67;5.22;;;8.50;99.90;;;;;;5113592;28;20019;-76
2022/12/25 07:57:51;;;;;;;19.33;4.95;;;8.50;99.90;;;;;;5112298;28;20027;-77
2022/12/25 08:00:17;;;;;;;13.10;4.65;;;8.80;99.90;;;;;;5112208;28;20532;-77
2022/12/25 08:02:42;;;;;;;16.63;4.57;;;8.60;99.90;;;;;;5113306;28;20027;-76
2022/12/25 08:05:08;;;;;;;14.98;4.68;;;8.60;99.90;;;;;;5114052;28;20032;-77
2022/12/25 08:07:35;;;;;;;12.45;3.95;;;8.60;99.90;;;;;;5112191;28;20028;-78
2022/12/25 08:10:01;;;;;;;11.95;4.45;;;8.60;99.90;;;;;;5112143;28;20027;-77
2022/12/25 08:12:27;;;;;;;15.10;4.13;;;8.70;99.90;;;;;;5113239;28;20444;-78
2022/12/25 08:14:52;;;;;;;12.68;4.50;;;8.60;99.90;;;;;;5112300;28;20028;-76
2022/12/25 08:17:18;;;;;;;20.02;4.32;;;8.60;99.90;;;;;;5113928;28;20020;-78
2022/12/25 08:19:44;;;;;;;14.82;4.05;;;8.70;99.90;;;;;;5112354;28;20448;-78
2022/12/25 08:22:10;;;;;;;11.75;3.75;;;8.70;99.90;;;;;;5112603;27;20085;-77
2022/12/25 08:24:35;;;;;;;18.73;4.20;;;8.80;99.90;;;;;;5112004;28;20051;-79
2022/12/25 08:27:02;;;;;;;19.25;4.53;;;8.80;99.90;;;;;;5111914;28;20111;-78
2022/12/25 08:29:28;;;;;;;24.23;5.00;;;8.80;99.90;;;;;;5113391;28;20241;-77
2022/12/25 08:31:54;;;;;;;22.98;4.85;;;8.90;99.90;;;;;;5113188;28;20032;-78
2022/12/25 08:34:20;;;;;;;19.33;4.38;;;8.90;99.90;;;;;;5111757;28;20541;-78
2022/12/25 08:36:46;;;;;;;17.65;4.82;;;9.00;99.90;;;;;;5111842;28;20124;-77
2022/12/25 08:39:11;;;;;;;22.92;5.22;;;9.00;99.90;;;;;;5112986;28;20419;-78
2022/12/25 08:41:37;;;;;;;16.63;4.60;;;9.00;99.90;;;;;;5113374;28;20039;-77
2022/12/25 08:44:04;;;;;;;15.07;4.10;;;9.10;99.90;;;;;;5113079;28;20035;-76
2022/12/25 08:46:30;;;;;;;19.52;4.75;;;9.10;99.90;;;;;;5111933;28;20027;-78
2022/12/25 08:48:56;;;;;;;18.83;4.55;;;9.20;99.90;;;;;;5111728;28;20065;-77
2022/12/25 08:51:23;;;;;;;20.55;4.63;;;9.10;99.90;;;;;;5113004;28;20084;-78
2022/12/25 08:53:51;;;;;;;21.05;5.63;;;9.20;99.90;;;;;;5111344;28;20041;-76
2022/12/25 08:56:17;;;;;;;14.40;4.32;;;9.20;99.90;;;;;;5112882;28;20016;-77
2022/12/25 08:58:43;;;;;;;19.35;5.03;;;9.20;99.90;;;;;;5112692;28;20059;-79
2022/12/25 09:01:10;;;;;;;20.60;4.68;;;9.30;99.90;;;;;;5112386;28;20115;-78
2022/12/25 09:03:36;;;;;;;18.77;4.85;;;9.30;99.90;;;;;;5112558;28;20023;-78
2022/12/25 09:06:10;;;;;;;20.25;4.72;;;9.30;99.90;;;;;;5112528;28;20112;-78
2022/12/25 09:08:37;;;;;;;11.93;4.00;;;9.30;99.90;;;;;;5112553;28;20407;-78
2022/12/25 09:11:08;;;;;;;15.55;4.03;;;9.50;99.90;;;;;;5112190;28;20376;-77
2022/12/25 09:13:35;;;;;;;16.08;5.57;;;9.40;99.90;;;;;;5112017;28;20071;-78
2022/12/25 09:16:10;;;;;;;22.90;5.10;;;9.40;99.90;;;;;;5111060;28;20027;-78
2022/12/25 09:18:35;;;;;;;13.32;4.72;;;9.40;99.90;;;;;;5112296;27;20056;-77
2022/12/25 09:21:04;;;;;;;16.90;4.55;;;9.50;99.90;;;;;;5111246;28;20068;-78
2022/12/25 09:23:31;;;;;;;16.23;3.55;;;9.50;99.90;;;;;;5111383;28;20032;-77
2022/12/25 09:26:01;;;;;;;17.20;4.50;;;9.60;99.90;;;;;;5110639;28;20433;-77
2022/12/25 09:28:28;;;;;;;18.73;4.68;;;9.60;99.90;;;;;;5110825;28;20127;-78
2022/12/25 09:30:54;;;;;;;24.08;5.63;;;9.40;99.90;;;;;;5110829;28;20441;-78
2022/12/25 09:33:20;;;;;;;13.98;4.50;;;9.70;99.90;;;;;;5111917;28;20079;-79
2022/12/25 09:36:15;;;;;;;24.00;4.85;;;9.80;99.90;;;;;;5110678;27;20433;-78
2022/12/25 09:38:41;;;;;;;15.57;4.97;;;9.70;99.90;;;;;;5098619;28;20412;-76
2022/12/25 09:41:21;;;;;;;13.70;4.80;;;9.80;99.90;;;;;;5112168;28;20036;-77
2022/12/25 09:44:13;;;;;;;21.80;5.22;;;9.80;99.90;;;;;;5110352;28;20036;-77
2022/12/25 09:46:55;;;;;;;14.85;5.13;;;9.80;99.90;;;;;;5111516;28;20028;-76
2022/12/25 09:50:00;;;;;;;14.52;5.05;;;9.80;99.90;;;;;;5110178;28;20092;-77
2022/12/25 09:52:46;;;;;;;13.70;5.35;;;9.90;99.90;;;;;;5107227;28;20057;-77
2022/12/25 09:55:21;;;;;;;12.88;4.63;;;10.00;99.90;;;;;;5110404;28;20032;-78
2022/12/25 09:58:00;;;;;;;11.90;5.07;;;10.00;99.90;;;;;;5111354;28;20111;-77
2022/12/25 10:00:36;;;;;;;18.85;5.38;;;10.00;99.90;;;;;;5110057;28;20023;-76
2022/12/25 10:03:08;;;;;;;16.10;4.47;;;10.00;99.90;;;;;;5111192;28;20036;-78
2022/12/25 10:06:11;;;;;;;17.48;5.60;;;10.00;99.90;;;;;;5111890;28;20027;-78
2022/12/25 10:08:48;;;;;;;16.23;4.53;;;10.00;99.90;;;;;;5109819;28;20469;-77
2022/12/25 10:11:20;;;;;;;16.50;5.30;;;10.00;99.90;;;;;;5111668;28;20035;-76
2022/12/25 10:13:51;;;;;;;20.27;4.88;;;10.10;99.90;;;;;;5110804;28;20043;-78
2022/12/25 10:16:25;;;;;;;24.25;5.65;;;10.10;99.90;;;;;;5111031;28;20027;-76
2022/12/25 10:19:25;;;;;;;19.88;5.05;;;10.10;99.90;;;;;;5111376;28;20061;-76
2022/12/25 10:21:55;;;;;;;17.33;5.63;;;10.00;99.90;;;;;;5110915;28;20043;-78
2022/12/25 10:24:27;;;;;;;15.27;4.30;;;10.10;99.90;;;;;;5111375;28;20031;-79
2022/12/25 10:26:54;;;;;;;18.27;5.32;;;10.10;99.90;;;;;;5110246;28;20020;-77
2022/12/25 10:29:20;;;;;;;13.85;4.80;;;10.10;99.90;;;;;;5112205;28;20058;-77
2022/12/25 10:31:48;;;;;;;23.40;5.63;;;10.10;99.90;;;;;;5111072;28;20020;-77
2022/12/25 10:34:15;;;;;;;20.95;5.47;;;10.10;99.90;;;;;;5109654;28;20241;-75
2022/12/25 10:36:45;;;;;;;18.50;5.15;;;10.20;99.90;;;;;;5113390;28;20248;-79
2022/12/25 10:39:20;;;;;;;16.70;5.13;;;10.20;99.90;;;;;;5109441;28;20020;-79
2022/12/25 10:42:30;;;;;;;21.48;5.60;;;10.10;99.90;;;;;;5110139;28;20020;-76
2022/12/25 10:45:02;;;;;;;20.50;5.03;;;10.20;99.90;;;;;;5106775;28;20062;-78
2022/12/25 10:47:32;;;;;;;15.30;5.30;;;10.20;99.90;;;;;;5115693;28;20031;-77
2022/12/25 10:49:59;;;;;;;14.65;6.13;;;10.20;99.90;;;;;;5114976;27;20078;-76
2022/12/25 10:52:27;;;;;;;18.75;5.43;;;10.30;99.90;;;;;;5113735;28;20031;-78
2022/12/25 10:54:53;;;;;;;;;;;10.30;99.90;;;;;;5113907;28;20461;-79
2022/12/25 10:57:21;;;;;;;17.77;5.22;;;10.30;99.90;;;;;;5114646;28;20205;-77
2022/12/25 10:59:55;;;;;;;18.85;5.75;;;10.30;99.90;;;;;;5114116;28;20046;-78
2022/12/25 11:02:34;;;;;;;20.13;4.88;;;10.40;99.90;;;;;;5114089;28;20072;-77
2022/12/25 11:05:07;;;;;;;21.40;5.70;;;10.30;99.90;;;;;;5113615;28;20028;-78
2022/12/25 11:07:45;;;;;;;13.27;4.70;;;10.30;99.90;;;;;;5113437;28;20048;-78
2022/12/25 11:10:34;;;;;;;23.88;6.03;;;10.30;99.90;;;;;;5114438;28;20024;-77
2022/12/25 11:13:01;;;;;;;21.15;5.20;;;10.40;99.90;;;;;;5113265;28;20039;-79
2022/12/25 11:15:30;;;;;;;21.00;5.97;;;10.40;99.90;;;;;;5114432;28;20020;-78
2022/12/25 11:17:55;;;;;;;14.05;4.85;;;10.40;99.90;;;;;;5113114;27;20582;-78
2022/12/25 11:20:22;;;;;;;13.45;4.32;;;10.40;99.90;;;;;;5114756;28;20019;-78
2022/12/25 11:22:48;;;;;;;12.38;5.00;;;10.50;99.90;;;;;;5113263;28;20043;-77
2022/12/25 11:25:21;;;;;;;21.27;4.75;;;10.50;99.90;;;;;;5113007;28;20396;-78
2022/12/25 11:28:04;;;;;;;15.27;4.93;;;10.50;99.90;;;;;;5112879;28;20369;-78
2022/12/25 11:30:32;;;;;;;15.90;4.80;;;10.50;99.90;;;;;;5112886;28;20020;-77
2022/12/25 11:33:03;;;;;;;11.57;5.10;;;10.60;99.90;;;;;;5114023;28;20020;-78
2022/12/25 11:35:33;;;;;;;13.95;4.57;;;10.50;99.90;;;;;;5114483;28;20058;-76
2022/12/25 11:37:59;;;;;;;17.08;4.47;;;10.50;99.90;;;;;;5112759;28;20126;-77
2022/12/25 11:40:41;;;;;;;12.02;4.45;;;10.60;99.90;;;;;;5114352;28;20111;-76
2022/12/25 11:43:19;;;;;;;16.27;5.03;;;10.60;99.90;;;;;;5112975;28;20032;-77
2022/12/25 11:45:55;;;;;;;9.85;4.45;;;10.60;99.90;;;;;;5113745;28;20031;-77
2022/12/25 11:48:29;;;;;;;9.43;4.00;;;10.70;99.90;;;;;;5112669;28;20420;-78
2022/12/25 11:51:00;;;;;;;11.43;4.60;;;10.70;99.90;;;;;;5113811;28;20144;-79
2022/12/25 11:53:41;;;;;;;11.73;4.70;;;10.70;99.90;;;;;;5114268;28;20483;-79
2022/12/25 11:56:23;;;;;;;16.02;4.80;;;10.70;99.90;;;;;;5113860;28;20057;-77
2022/12/25 11:58:53;;;;;;;15.30;4.70;;;10.70;99.90;;;;;;5112734;28;20035;-79
2022/12/25 12:01:48;;;;;;;10.07;3.55;;;10.70;99.90;;;;;;5113580;28;20028;-76
2022/12/25 12:04:41;;;;;;;11.40;3.90;;;10.70;99.90;;;;;;5113324;28;20058;-76
2022/12/25 12:07:19;;;;;;;17.95;4.25;;;10.80;99.90;;;;;;5109026;28;20107;-77
2022/12/25 12:09:50;;;;;;;10.93;4.50;;;10.70;99.90;;;;;;5113141;28;20465;-76
2022/12/25 12:12:35;;;;;;;12.00;4.15;;;10.80;99.90;;;;;;5114164;28;20047;-77
2022/12/25 12:15:34;;;;;;;10.00;3.97;;;10.80;99.90;;;;;;5115239;28;20118;-76
2022/12/25 12:18:19;;;;;;;11.85;4.15;;;10.70;99.90;;;;;;5113741;27;20050;-76
2022/12/25 12:20:56;;;;;;;10.98;4.25;;;10.80;99.90;;;;;;5113871;28;20057;-76
2022/12/25 12:23:21;;;;;;;19.77;5.20;;;10.80;99.90;;;;;;5114671;28;20110;-76
2022/12/25 12:25:48;;;;;;;16.08;4.25;;;10.80;99.90;;;;;;5112360;28;20123;-76
2022/12/25 12:28:43;;;;;;;11.32;4.60;;;10.80;99.90;;;;;;5112101;28;20108;-78
2022/12/25 12:31:09;;;;;;;14.73;4.55;;;10.80;99.90;;;;;;5108068;27;20032;-79
2022/12/25 12:33:53;;;;;;;9.35;4.00;;;10.80;99.90;;;;;;5113029;28;20119;-76
2022/12/25 12:36:21;;;;;;;15.32;4.18;;;10.80;99.90;;;;;;5112713;28;20023;-76
2022/12/25 12:38:49;;;;;;;10.93;4.13;;;10.80;99.90;;;;;;5112883;28;20349;-76
2022/12/25 12:41:16;;;;;;;9.25;3.80;;;10.80;99.90;;;;;;5112330;28;20024;-77
2022/12/25 12:43:51;;;;;;;10.18;4.25;;;10.80;99.90;;;;;;5112939;28;20123;-76
2022/12/25 12:46:24;;;;;;;12.68;4.07;;;10.80;99.90;;;;;;5111774;28;20031;-77
2022/12/25 12:48:52;;;;;;;26.23;7.43;;;10.80;99.90;;;;;;5111710;28;20047;-77
2022/12/25 12:51:36;;;;;;;24.30;8.90;;;10.80;99.90;;;;;;5112701;28;20032;-77
2022/12/25 12:54:04;;;;;;;16.27;5.80;;;10.80;99.90;;;;;;5112841;28;20050;-78
2022/12/25 12:56:30;;;;;;;22.38;7.43;;;10.80;99.90;;;;;;5112972;28;20080;-76
2022/12/25 12:58:56;;;;;;;13.23;5.63;;;10.80;99.90;;;;;;5111374;28;20032;-77
2022/12/25 13:01:57;;;;;;;16.23;4.63;;;10.80;99.90;;;;;;5111056;28;20057;-77
2022/12/25 13:04:52;;;;;;;14.52;4.60;;;10.80;99.90;;;;;;5052462;28;20370;-76
2022/12/25 13:07:42;;;;;;;14.57;5.38;;;10.80;99.90;;;;;;5108636;28;20031;-77
2022/12/25 13:10:37;;;;;;;11.63;4.07;;;10.80;99.90;;;;;;5112244;27;20110;-76
2022/12/25 13:13:12;;;;;;;14.43;4.60;;;10.80;99.90;;;;;;5110679;28;20057;-77
2022/12/25 13:15:38;;;;;;;14.15;4.78;;;10.80;99.90;;;;;;5111222;28;20054;-76
2022/12/25 13:18:11;;;;;;;11.35;4.15;;;10.80;99.90;;;;;;5111988;28;20529;-77
2022/12/25 13:20:53;;;;;;;9.80;4.15;;;10.80;99.90;;;;;;5112561;28;20035;-77
2022/12/25 13:23:34;;;;;;;14.05;4.57;;;10.70;99.90;;;;;;5112089;28;20393;-76
2022/12/25 13:26:16;;;;;;;11.07;3.80;;;10.70;99.90;;;;;;5111566;28;20028;-77
2022/12/25 13:28:45;;;;;;;12.32;4.05;;;10.70;99.90;;;;;;5111815;28;20047;-76
2022/12/25 13:31:20;;;;;;;13.88;4.28;;;10.70;99.90;;;;;;5112033;28;20042;-78
2022/12/25 13:33:56;;;;;;;15.00;3.85;;;10.70;99.90;;;;;;5110651;28;20354;-76
2022/12/25 13:36:22;;;;;;;15.38;3.65;;;10.60;99.90;;;;;;5111600;28;20028;-77
2022/12/25 13:38:51;;;;;;;13.75;4.38;;;10.60;99.90;;;;;;5110696;28;20023;-78
2022/12/25 13:44:21;;;;;;;7.18;3.80;;;10.60;99.90;;;;;;5112048;28;20483;-77
2022/12/25 13:46:47;;;;;;;11.32;4.35;;;10.60;99.90;;;;;;5111795;28;20127;-77
2022/12/25 13:49:20;;;;;;;13.80;3.65;;;10.60;99.90;;;;;;5111616;27;20122;-77
2022/12/25 13:51:46;;;;;;;9.30;3.47;;;10.60;99.90;;;;;;5111461;28;20089;-76
2022/12/25 13:54:13;;;;;;;14.38;3.92;;;10.60;99.90;;;;;;5111302;28;20042;-76
2022/12/25 13:56:53;;;;;;;12.45;4.65;;;10.60;99.90;;;;;;5111824;28;20476;-76
2022/12/25 13:59:22;;;;;;;11.90;4.28;;;10.60;99.90;;;;;;5111400;28;20397;-77
2022/12/25 14:01:49;;;;;;;13.65;3.85;;;10.60;99.90;;;;;;5111818;28;20028;-76
2022/12/25 14:04:20;;;;;;;13.55;4.32;;;10.60;99.90;;;;;;5111259;28;20431;-76
2022/12/25 14:06:47;;;;;;;11.52;3.78;;;10.50;99.90;;;;;;5111258;28;20088;-76
2022/12/25 14:09:14;;;;;;;10.50;3.63;;;10.50;99.90;;;;;;5110043;28;20040;-76
2022/12/25 14:11:44;;;;;;;7.38;3.40;;;10.50;99.90;;;;;;5111452;28;20019;-76
2022/12/25 14:14:29;;;;;;;9.02;3.22;;;10.60;99.90;;;;;;5111270;28;20048;-76
2022/12/25 14:16:57;;;;;;;9.85;3.78;;;10.50;99.90;;;;;;5111472;28;20024;-77
2022/12/25 14:19:29;;;;;;;10.88;4.05;;;10.50;99.90;;;;;;5110001;28;20101;-77
2022/12/25 14:22:09;;;;;;;17.92;6.35;;;10.50;99.90;;;;;;5109638;28;20141;-76
2022/12/25 14:24:37;;;;;;;8.73;3.83;;;10.50;99.90;;;;;;5111289;28;20127;-77
2022/12/25 14:27:16;;;;;;;10.25;3.83;;;10.50;99.90;;;;;;5110693;28;20057;-76
2022/12/25 14:29:44;;;;;;;12.23;4.20;;;10.50;99.90;;;;;;5110470;28;20020;-77
2022/12/25 14:32:19;;;;;;;7.03;3.58;;;10.40;99.90;;;;;;5111477;28;20036;-77
2022/12/25 14:34:47;;;;;;;15.65;4.35;;;10.50;99.90;;;;;;5111019;28;20032;-77
2022/12/25 14:37:17;;;;;;;10.88;4.15;;;10.50;99.90;;;;;;5110844;28;20257;-76
2022/12/25 14:39:46;;;;;;;45.75;14.48;;;10.50;99.90;;;;;;5109504;28;20369;-76
2022/12/25 14:42:19;;;;;;;20.77;7.40;;;10.50;99.90;;;;;;5110324;28;20020;-76
2022/12/25 14:45:02;;;;;;;13.60;4.95;;;10.50;99.90;;;;;;5109918;28;20029;-74